createdAt,value
2022-10-31T00:01:32.281Z,97782.50
2022-10-31T00:03:58.941Z,97785.31
2022-10-31T00:06:26.096Z,97788.31
2022-10-31T00:08:55.278Z,97786.53
2022-10-31T00:11:22.138Z,97789.06
2022-10-31T00:13:48.828Z,97778.41
2022-10-31T00:16:17.671Z,97788.03
2022-10-31T00:18:44.668Z,97784.06
2022-10-31T00:21:11.292Z,97788.06
2022-10-31T00:23:37.899Z,97790.50
2022-10-31T00:26:06.372Z,97781.00
2022-10-31T00:28:33.231Z,97785.09
2022-10-31T00:31:05.271Z,97787.56
2022-10-31T00:33:35.658Z,97790.31
2022-10-31T00:36:05.579Z,97803.31
2022-10-31T00:38:32.408Z,97801.72
2022-10-31T00:40:58.934Z,97799.41
2022-10-31T00:43:28.012Z,97799.81
2022-10-31T00:45:54.522Z,97802.56
2022-10-31T00:48:25.520Z,97796.00
2022-10-31T00:50:52.044Z,97791.91
2022-10-31T00:53:18.628Z,97799.31
2022-10-31T00:55:45.177Z,97798.13
2022-10-31T00:58:11.722Z,97797.56
2022-10-31T01:00:38.354Z,97798.22
2022-10-31T01:03:04.902Z,97803.13
2022-10-31T01:05:36.158Z,97804.16
2022-10-31T01:08:02.662Z,97798.00
2022-10-31T01:10:29.204Z,97789.56
2022-10-31T01:12:55.726Z,97796.63
2022-10-31T01:15:23.506Z,97790.75
2022-10-31T01:17:50.893Z,97793.56
2022-10-31T01:20:18.206Z,97799.41
2022-10-31T01:22:44.852Z,97797.00
2022-10-31T01:25:11.793Z,97798.31
2022-10-31T01:27:38.351Z,97796.53
2022-10-31T01:30:06.318Z,97792.56
2022-10-31T01:32:33.286Z,97795.16
2022-10-31T01:34:59.880Z,97793.84
2022-10-31T01:37:26.475Z,97790.00
2022-10-31T01:39:53.038Z,97789.91
2022-10-31T01:42:22.607Z,97788.25
2022-10-31T01:44:56.129Z,97782.97
2022-10-31T01:47:33.480Z,97785.84
2022-10-31T01:50:03.563Z,97790.09
2022-10-31T01:52:39.802Z,97785.72
2022-10-31T01:55:12.836Z,97784.06
2022-10-31T01:57:42.568Z,97785.38
2022-10-31T02:00:10.706Z,97781.34
2022-10-31T02:02:37.606Z,97781.56
2022-10-31T02:05:11.457Z,97780.13
2022-10-31T02:07:40.983Z,97790.94
2022-10-31T02:10:07.809Z,97783.25
2022-10-31T02:12:37.113Z,97781.75
2022-10-31T02:15:04.834Z,97778.28
2022-10-31T02:17:32.742Z,97779.78
2022-10-31T02:20:35.828Z,97774.41
2022-10-31T02:23:27.165Z,97773.88
2022-10-31T02:26:11.690Z,97775.81
2022-10-31T02:28:58.563Z,97773.47
2022-10-31T02:31:33.788Z,97779.22
2022-10-31T02:34:09.975Z,97783.28
2022-10-31T02:36:48.179Z,97787.16
2022-10-31T02:39:30.131Z,97787.16
2022-10-31T02:42:14.892Z,97786.63
2022-10-31T02:44:51.114Z,97776.91
2022-10-31T02:47:28.580Z,97776.22
2022-10-31T02:50:00.683Z,97781.97
2022-10-31T02:52:27.137Z,97781.59
2022-10-31T02:54:54.079Z,97779.09
2022-10-31T02:57:28.152Z,97784.72
2022-10-31T02:59:59.503Z,97784.69
2022-10-31T03:02:29.143Z,97780.22
2022-10-31T03:05:10.369Z,97783.34
2022-10-31T03:07:46.098Z,97788.88
2022-10-31T03:10:32.813Z,97790.47
2022-10-31T03:13:05.700Z,97789.19
2022-10-31T03:15:36.507Z,97786.78
2022-10-31T03:18:10.466Z,97791.66
2022-10-31T03:20:53.412Z,97798.34
2022-10-31T03:23:25.525Z,97794.72
2022-10-31T03:25:55.028Z,97793.50
2022-10-31T03:28:28.098Z,97795.06
2022-10-31T03:30:55.814Z,97791.47
2022-10-31T03:33:29.341Z,97791.31
2022-10-31T03:35:58.373Z,97792.75
2022-10-31T03:38:24.921Z,97795.00
2022-10-31T03:40:54.794Z,97795.22
2022-10-31T03:43:29.964Z,97801.28
2022-10-31T03:45:57.394Z,97809.84
2022-10-31T03:48:24.660Z,97811.19
2022-10-31T03:50:56.778Z,97811.00
2022-10-31T03:53:33.167Z,97815.44
2022-10-31T03:56:02.348Z,97814.09
2022-10-31T03:58:38.248Z,97818.41
2022-10-31T04:01:14.814Z,97813.53
2022-10-31T04:03:43.282Z,97818.16
2022-10-31T04:06:13.176Z,97809.84
2022-10-31T04:08:45.280Z,97815.88
2022-10-31T04:11:14.881Z,97810.53
2022-10-31T04:13:45.064Z,97809.16
2022-10-31T04:16:16.900Z,97819.16
2022-10-31T04:18:44.129Z,97810.34
2022-10-31T04:21:10.633Z,97813.38
2022-10-31T04:23:37.411Z,97822.25
2022-10-31T04:26:04.554Z,97822.31
2022-10-31T04:28:31.127Z,97823.56
2022-10-31T04:30:57.676Z,97818.53
2022-10-31T04:33:24.198Z,97826.19
2022-10-31T04:35:50.747Z,97820.56
2022-10-31T04:38:17.287Z,97815.13
2022-10-31T04:40:43.910Z,97819.69
2022-10-31T04:43:10.481Z,97825.00
2022-10-31T04:45:38.249Z,97830.41
2022-10-31T04:48:05.065Z,97818.88
2022-10-31T04:50:31.587Z,97819.19
2022-10-31T04:52:58.259Z,97823.47
2022-10-31T04:55:24.797Z,97827.81
2022-10-31T04:57:51.922Z,97823.03
2022-10-31T05:00:23.193Z,97826.22
2022-10-31T05:02:51.625Z,97819.88
2022-10-31T05:05:21.177Z,97825.38
2022-10-31T05:07:49.215Z,97823.03
2022-10-31T05:10:19.422Z,97824.03
2022-10-31T05:12:50.464Z,97822.72
2022-10-31T05:15:18.720Z,97817.53
2022-10-31T05:17:45.868Z,97818.41
2022-10-31T05:20:16.893Z,97811.66
2022-10-31T05:22:48.388Z,97821.91
2022-10-31T05:25:15.684Z,97812.53
2022-10-31T05:27:50.045Z,97817.47
2022-10-31T05:30:25.417Z,97812.34
2022-10-31T05:32:52.388Z,97817.22
2022-10-31T05:35:23.212Z,97815.88
2022-10-31T05:37:50.152Z,97819.31
2022-10-31T05:40:18.705Z,97813.22
2022-10-31T05:42:45.783Z,97815.44
2022-10-31T05:45:15.801Z,97813.53
2022-10-31T05:47:43.030Z,97813.97
2022-10-31T05:50:10.936Z,97819.13
2022-10-31T05:52:37.644Z,97817.78
2022-10-31T05:55:04.680Z,97818.72
2022-10-31T05:57:33.190Z,97813.03
2022-10-31T05:59:59.782Z,97826.91
2022-10-31T06:02:27.736Z,97820.13
2022-10-31T06:04:54.377Z,97826.66
2022-10-31T06:07:20.985Z,97825.72
2022-10-31T06:09:47.576Z,97818.53
2022-10-31T06:12:14.075Z,97817.78
2022-10-31T06:14:40.595Z,97816.69
2022-10-31T06:17:07.167Z,97815.13
2022-10-31T06:19:36.057Z,97820.38
2022-10-31T06:22:03.284Z,97820.50
2022-10-31T06:24:29.787Z,97822.25
2022-10-31T06:26:56.309Z,97825.75
2022-10-31T06:29:23.187Z,97830.94
2022-10-31T06:31:52.622Z,97826.44
2022-10-31T06:34:19.143Z,97834.06
2022-10-31T06:36:47.758Z,97833.06
2022-10-31T06:39:15.001Z,97831.78
2022-10-31T06:41:42.522Z,97828.38
2022-10-31T06:44:09.184Z,97828.25
2022-10-31T06:46:35.712Z,97828.09
2022-10-31T06:49:02.233Z,97834.81
2022-10-31T06:51:28.772Z,97836.13
2022-10-31T06:53:55.347Z,97831.94
2022-10-31T06:56:21.902Z,97843.50
2022-10-31T06:58:50.805Z,97840.00
2022-10-31T07:01:17.444Z,97835.88
2022-10-31T07:03:44.082Z,97838.44
2022-10-31T07:06:10.608Z,97839.97
2022-10-31T07:08:37.241Z,97846.19
2022-10-31T07:11:03.810Z,97843.59
2022-10-31T07:13:30.412Z,97847.22
2022-10-31T07:16:02.287Z,97846.41
2022-10-31T07:18:29.160Z,97844.03
2022-10-31T07:20:55.776Z,97850.47
2022-10-31T07:23:23.537Z,97842.66
2022-10-31T07:25:55.519Z,97853.53
2022-10-31T07:28:24.570Z,97849.19
2022-10-31T07:30:55.845Z,97845.81
2022-10-31T07:33:23.295Z,97852.34
2022-10-31T07:35:50.183Z,97844.78
2022-10-31T07:38:16.862Z,97846.28
2022-10-31T07:40:43.677Z,97850.66
2022-10-31T07:43:14.666Z,97840.53
2022-10-31T07:45:41.775Z,97843.88
2022-10-31T07:48:10.785Z,97849.94
2022-10-31T07:50:37.376Z,97841.81
2022-10-31T07:53:04.231Z,97853.72
2022-10-31T07:55:31.439Z,97847.94
2022-10-31T07:57:59.597Z,97835.28
2022-10-31T08:00:27.439Z,97831.72
2022-10-31T08:03:01.956Z,97834.16
2022-10-31T08:05:29.895Z,97830.94
2022-10-31T08:07:57.167Z,97832.06
2022-10-31T08:10:24.933Z,97826.75
2022-10-31T08:12:59.188Z,97831.00
2022-10-31T08:15:26.434Z,97828.00
2022-10-31T08:17:52.959Z,97824.09
2022-10-31T08:20:20.193Z,97826.56
2022-10-31T08:22:57.441Z,97823.59
2022-10-31T08:25:27.196Z,97816.66
2022-10-31T08:27:55.447Z,97806.63
2022-10-31T08:30:24.068Z,97809.34
2022-10-31T08:33:08.401Z,97813.31
2022-10-31T08:35:35.033Z,97807.06
2022-10-31T08:38:02.941Z,97804.66
2022-10-31T08:40:31.883Z,97805.25
2022-10-31T08:43:07.117Z,97803.69
2022-10-31T08:45:34.897Z,97800.69
2022-10-31T08:48:04.541Z,97790.63
2022-10-31T08:50:36.153Z,97786.78
2022-10-31T08:53:05.961Z,97784.41
2022-10-31T08:55:35.677Z,97783.47
2022-10-31T08:58:06.108Z,97787.72
2022-10-31T09:00:34.043Z,97781.78
2022-10-31T09:03:06.199Z,97772.78
2022-10-31T09:05:33.625Z,97774.34
2022-10-31T09:08:02.413Z,97767.00
2022-10-31T09:10:30.038Z,97765.50
2022-10-31T09:13:18.637Z,97760.72
2022-10-31T09:15:47.042Z,97755.84
2022-10-31T09:18:15.950Z,97760.63
2022-10-31T09:20:44.029Z,97755.25
2022-10-31T09:23:16.858Z,97751.63
2022-10-31T09:25:50.013Z,97749.03
2022-10-31T09:28:19.250Z,97741.09
2022-10-31T09:30:48.821Z,97740.53
2022-10-31T09:33:15.662Z,97737.91
2022-10-31T09:35:42.743Z,97735.63
2022-10-31T09:38:20.024Z,97730.97
2022-10-31T09:41:11.393Z,97733.72
2022-10-31T09:43:49.435Z,97723.22
2022-10-31T09:46:22.076Z,97730.09
2022-10-31T09:49:06.965Z,97729.03
2022-10-31T09:51:35.575Z,97728.16
2022-10-31T09:54:13.473Z,97728.00
2022-10-31T09:56:44.480Z,97724.03
2022-10-31T09:59:40.013Z,97722.88
2022-10-31T10:02:35.770Z,97713.47
2022-10-31T10:05:05.763Z,97714.56
2022-10-31T10:08:01.871Z,97714.66
2022-10-31T10:10:52.603Z,97707.53
2022-10-31T10:13:19.205Z,97711.47
2022-10-31T10:15:54.722Z,97715.25
2022-10-31T10:18:31.921Z,97717.47
2022-10-31T10:21:27.792Z,97708.78
2022-10-31T10:24:16.245Z,97703.22
2022-10-31T10:26:51.657Z,97708.78
2022-10-31T10:29:46.595Z,97709.13
2022-10-31T10:32:23.311Z,97707.72
2022-10-31T10:34:59.800Z,97703.97
2022-10-31T10:37:39.359Z,97707.44
2022-10-31T10:40:22.414Z,97696.75
2022-10-31T10:43:23.623Z,97692.84
2022-10-31T10:46:34.976Z,97681.13
2022-10-31T10:49:20.493Z,97690.00
2022-10-31T10:52:35.234Z,97689.28
2022-10-31T10:55:38.288Z,97679.00
2022-10-31T10:58:09.315Z,97677.59
2022-10-31T11:00:44.022Z,97667.56
2022-10-31T11:03:14.566Z,97663.13
2022-10-31T11:05:53.133Z,97670.59
2022-10-31T11:08:27.686Z,97663.22
2022-10-31T11:11:05.465Z,97664.41
2022-10-31T11:13:33.784Z,97662.41
2022-10-31T11:16:08.690Z,97662.88
2022-10-31T11:18:40.245Z,97653.94
2022-10-31T11:21:07.157Z,97656.47
2022-10-31T11:23:34.446Z,97649.47
2022-10-31T11:26:06.128Z,97646.84
2022-10-31T11:28:38.003Z,97645.13
2022-10-31T11:31:14.858Z,97643.41
2022-10-31T11:33:48.928Z,97641.78
2022-10-31T11:36:24.847Z,97642.66
2022-10-31T11:38:52.913Z,97635.16
2022-10-31T11:41:39.503Z,97629.13
2022-10-31T11:44:14.344Z,97625.56
2022-10-31T11:46:53.369Z,97619.63
2022-10-31T11:49:43.320Z,97609.94
2022-10-31T11:52:44.659Z,97604.50
2022-10-31T11:55:11.234Z,97604.19
2022-10-31T11:57:46.787Z,97609.03
2022-10-31T12:00:22.621Z,97602.56
2022-10-31T12:02:49.786Z,97597.91
2022-10-31T12:05:23.447Z,97593.56
2022-10-31T12:07:50.341Z,97585.81
2022-10-31T12:10:20.902Z,97584.44
2022-10-31T12:13:18.188Z,97579.56
2022-10-31T12:15:55.217Z,97589.00
2022-10-31T12:18:43.534Z,97576.72
2022-10-31T12:21:21.487Z,97573.41
2022-10-31T12:23:56.897Z,97574.25
2022-10-31T12:26:58.370Z,97570.94
2022-10-31T12:29:27.754Z,97559.69
2022-10-31T12:32:09.462Z,97559.19
2022-10-31T12:35:01.228Z,97557.53
2022-10-31T12:37:49.508Z,97557.22
2022-10-31T12:40:21.996Z,97552.56
2022-10-31T12:43:03.921Z,97546.28
2022-10-31T12:45:52.637Z,97536.00
2022-10-31T12:48:43.984Z,97533.69
2022-10-31T12:51:30.931Z,97535.00
2022-10-31T12:54:25.310Z,97541.94
2022-10-31T12:57:03.911Z,97533.47
2022-10-31T12:59:37.163Z,97524.91
2022-10-31T13:02:24.230Z,97519.44
2022-10-31T13:04:56.613Z,97530.00
2022-10-31T13:07:41.478Z,97525.31
2022-10-31T13:10:32.610Z,97523.31
2022-10-31T13:13:11.845Z,97515.19
2022-10-31T13:15:58.902Z,97516.00
2022-10-31T13:18:41.408Z,97515.31
2022-10-31T13:21:20.147Z,97516.56
2022-10-31T13:23:52.021Z,97509.13
2022-10-31T13:26:37.942Z,97501.03
2022-10-31T13:29:32.678Z,97503.25
2022-10-31T13:32:01.891Z,97500.41
2022-10-31T13:34:34.312Z,97495.75
2022-10-31T13:37:22.292Z,97501.91
2022-10-31T13:40:19.687Z,97498.59
2022-10-31T13:42:56.419Z,97499.22
2022-10-31T13:45:25.082Z,97492.16
2022-10-31T13:48:17.262Z,97489.69
2022-10-31T13:50:56.479Z,97482.59
2022-10-31T13:53:36.945Z,97487.94
2022-10-31T13:56:09.508Z,97484.56
2022-10-31T13:58:38.762Z,97482.66
2022-10-31T14:01:11.569Z,97485.00
2022-10-31T14:06:44.134Z,97483.88
2022-10-31T14:09:33.075Z,97484.16
2022-10-31T14:12:05.004Z,97478.72
2022-10-31T14:14:36.300Z,97476.13
2022-10-31T14:17:03.388Z,97470.81
2022-10-31T14:19:30.000Z,97464.13
2022-10-31T14:21:56.610Z,97463.25
2022-10-31T14:24:26.210Z,97469.44
2022-10-31T14:26:57.353Z,97465.75
2022-10-31T14:29:27.099Z,97463.78
2022-10-31T14:31:56.499Z,97460.47
2022-10-31T14:34:36.614Z,97456.28
2022-10-31T14:37:15.551Z,97451.38
2022-10-31T14:40:06.737Z,97441.44
2022-10-31T14:42:56.296Z,97442.88
2022-10-31T14:45:47.617Z,97442.88
2022-10-31T14:48:38.359Z,97440.22
2022-10-31T14:51:16.057Z,97440.47
2022-10-31T14:53:55.947Z,97437.22
2022-10-31T14:56:27.848Z,97431.59
2022-10-31T14:58:57.788Z,97426.19
2022-10-31T15:01:29.673Z,97432.63
2022-10-31T15:04:22.434Z,97425.13
2022-10-31T15:06:55.059Z,97420.72
2022-10-31T15:09:32.587Z,97423.91
2022-10-31T15:12:21.707Z,97414.47
2022-10-31T15:14:48.272Z,97410.78
2022-10-31T15:17:15.014Z,97407.75
2022-10-31T15:19:43.311Z,97400.09
2022-10-31T15:22:17.297Z,97398.66
2022-10-31T15:24:46.867Z,97400.09
2022-10-31T15:27:16.646Z,97402.81
2022-10-31T15:29:54.932Z,97399.63
2022-10-31T15:32:29.466Z,97394.63
2022-10-31T15:34:58.124Z,97394.56
2022-10-31T15:37:26.791Z,97390.00
2022-10-31T15:39:53.522Z,97393.72
2022-10-31T15:42:22.970Z,97392.53
2022-10-31T15:44:56.775Z,97380.53
2022-10-31T15:47:25.465Z,97377.66
2022-10-31T15:49:55.226Z,97378.69
2022-10-31T15:52:33.068Z,97367.19
2022-10-31T15:55:02.877Z,97370.28
2022-10-31T15:57:29.930Z,97363.66
2022-10-31T15:59:56.740Z,97372.28
2022-10-31T16:02:28.282Z,97360.31
2022-10-31T16:05:02.425Z,97371.97
2022-10-31T16:07:30.439Z,97370.34
2022-10-31T16:10:01.798Z,97376.00
2022-10-31T16:12:43.704Z,97365.91
2022-10-31T16:15:18.600Z,97365.41
2022-10-31T16:17:48.137Z,97376.75
2022-10-31T16:20:26.364Z,97368.78
2022-10-31T16:22:54.721Z,97369.91
2022-10-31T16:25:25.170Z,97368.53
2022-10-31T16:27:54.790Z,97369.09
2022-10-31T16:30:47.878Z,97366.94
2022-10-31T16:33:36.792Z,97362.41
2022-10-31T16:36:36.497Z,97365.28
2022-10-31T16:39:04.134Z,97361.56
2022-10-31T16:41:30.947Z,97363.88
2022-10-31T16:43:57.583Z,97363.47
2022-10-31T16:46:27.090Z,97354.34
2022-10-31T16:48:54.917Z,97362.63
2022-10-31T16:51:21.431Z,97362.47
2022-10-31T16:53:48.035Z,97364.41
2022-10-31T16:56:24.512Z,97367.19
2022-10-31T16:58:51.118Z,97360.69
2022-10-31T17:01:17.822Z,97370.22
2022-10-31T17:03:44.476Z,97369.09
2022-10-31T17:06:14.333Z,97373.09
2022-10-31T17:08:43.209Z,97365.72
2022-10-31T17:11:22.152Z,97367.28
2022-10-31T17:13:51.658Z,97360.75
2022-10-31T17:16:18.238Z,97362.28
2022-10-31T17:18:46.149Z,97370.19
2022-10-31T17:21:19.043Z,97363.56
2022-10-31T17:23:45.631Z,97361.91
2022-10-31T17:26:12.178Z,97360.94
2022-10-31T17:28:38.739Z,97364.66
2022-10-31T17:31:20.263Z,97366.75
2022-10-31T17:33:46.915Z,97365.78
2022-10-31T17:36:13.505Z,97362.19
2022-10-31T17:38:40.025Z,97360.69
2022-10-31T17:41:11.269Z,97364.69
2022-10-31T17:43:38.437Z,97368.97
2022-10-31T17:46:05.519Z,97365.94
2022-10-31T17:48:34.341Z,97372.72
2022-10-31T17:51:03.185Z,97367.88
2022-10-31T17:53:34.609Z,97362.47
2022-10-31T17:56:06.691Z,97363.47
2022-10-31T17:58:35.540Z,97362.91
2022-10-31T18:01:12.880Z,97371.50
2022-10-31T18:03:40.059Z,97366.50
2022-10-31T18:06:07.276Z,97356.00
2022-10-31T18:08:36.002Z,97362.75
2022-10-31T18:11:10.968Z,97355.19
2022-10-31T18:13:38.282Z,97356.41
2022-10-31T18:16:14.458Z,97360.53
2022-10-31T18:18:41.651Z,97352.81
2022-10-31T18:21:11.582Z,97353.91
2022-10-31T18:23:38.172Z,97361.78
2022-10-31T18:26:04.988Z,97350.31
2022-10-31T18:28:31.562Z,97354.97
2022-10-31T18:31:01.287Z,97345.59
2022-10-31T18:33:30.686Z,97352.50
2022-10-31T18:35:57.303Z,97349.44
2022-10-31T18:38:23.866Z,97355.81
2022-10-31T18:40:53.367Z,97356.31
2022-10-31T18:43:20.041Z,97354.13
2022-10-31T18:45:48.659Z,97345.91
2022-10-31T18:48:17.454Z,97351.44
2022-10-31T18:50:46.892Z,97343.84
2022-10-31T18:53:13.489Z,97345.72
2022-10-31T18:55:44.150Z,97341.06
2022-10-31T18:58:15.799Z,97349.88
2022-10-31T19:00:45.823Z,97343.97
2022-10-31T19:03:15.110Z,97339.06
2022-10-31T19:05:44.014Z,97341.97
2022-10-31T19:08:13.478Z,97339.19
2022-10-31T19:10:40.677Z,97336.91
2022-10-31T19:13:07.670Z,97336.81
2022-10-31T19:15:35.586Z,97339.22
2022-10-31T19:18:04.870Z,97338.81
2022-10-31T19:20:31.945Z,97342.53
2022-10-31T19:23:01.025Z,97329.91
2022-10-31T19:25:27.883Z,97329.94
2022-10-31T19:27:54.409Z,97326.81
2022-10-31T19:30:21.621Z,97331.16
2022-10-31T19:32:48.233Z,97331.34
2022-10-31T19:35:15.201Z,97331.22
2022-10-31T19:37:42.425Z,97331.09
2022-10-31T19:40:10.914Z,97332.44
2022-10-31T19:42:37.585Z,97342.53
2022-10-31T19:45:05.032Z,97339.84
2022-10-31T19:47:31.688Z,97340.84
2022-10-31T19:49:58.363Z,97340.38
2022-10-31T19:52:24.985Z,97341.84
2022-10-31T19:54:52.080Z,97346.63
2022-10-31T19:57:23.187Z,97342.13
2022-10-31T19:59:57.300Z,97335.69
2022-10-31T20:02:23.838Z,97339.03
2022-10-31T20:04:50.341Z,97335.41
2022-10-31T20:07:16.940Z,97339.44
2022-10-31T20:09:46.063Z,97338.81
2022-10-31T20:12:12.666Z,97341.56
2022-10-31T20:14:39.184Z,97345.75
2022-10-31T20:17:06.039Z,97345.59
2022-10-31T20:19:32.798Z,97345.59
2022-10-31T20:21:59.657Z,97350.47
2022-10-31T20:24:26.217Z,97345.38
2022-10-31T20:26:52.923Z,97348.47
2022-10-31T20:29:20.068Z,97351.94
2022-10-31T20:31:47.411Z,97351.06
2022-10-31T20:34:17.219Z,97343.13
2022-10-31T20:36:43.806Z,97339.78
2022-10-31T20:39:10.499Z,97344.06
2022-10-31T20:41:39.083Z,97352.25
2022-10-31T20:44:06.396Z,97346.56
2022-10-31T20:46:33.119Z,97348.88
2022-10-31T20:49:01.951Z,97351.50
2022-10-31T20:51:29.097Z,97354.91
2022-10-31T20:53:57.384Z,97354.47
2022-10-31T20:56:26.021Z,97355.03
2022-10-31T20:58:56.814Z,97354.28
2022-10-31T21:01:27.030Z,97357.19
2022-10-31T21:03:53.789Z,97357.56
2022-10-31T21:06:23.267Z,97357.94
2022-10-31T21:08:50.919Z,97354.16
2022-10-31T21:11:19.769Z,97355.09
2022-10-31T21:13:47.735Z,97352.22
2022-10-31T21:16:20.036Z,97355.41
2022-10-31T21:18:47.672Z,97363.19
2022-10-31T21:21:27.570Z,97359.13
2022-10-31T21:24:01.716Z,97359.84
2022-10-31T21:26:30.997Z,97352.59
2022-10-31T21:28:58.632Z,97363.66
2022-10-31T21:31:28.386Z,97374.81
2022-10-31T21:33:55.876Z,97370.59
2022-10-31T21:36:22.852Z,97369.41
2022-10-31T21:38:51.373Z,97369.91
2022-10-31T21:41:19.517Z,97360.53
2022-10-31T21:43:48.262Z,97358.56
2022-10-31T21:46:20.128Z,97351.16
2022-10-31T21:48:47.186Z,97352.72
2022-10-31T21:51:16.377Z,97353.38
2022-10-31T21:54:01.397Z,97360.03
2022-10-31T21:56:28.490Z,97358.00
2022-10-31T21:58:55.753Z,97363.41
2022-10-31T22:01:24.236Z,97370.75
2022-10-31T22:03:51.213Z,97364.19
2022-10-31T22:06:18.229Z,97363.06
2022-10-31T22:08:47.046Z,97361.84
2022-10-31T22:11:16.653Z,97364.69
2022-10-31T22:13:45.126Z,97366.88
2022-10-31T22:16:23.005Z,97365.59
2022-10-31T22:18:53.945Z,97371.38
2022-10-31T22:21:26.437Z,97371.66
2022-10-31T22:24:02.048Z,97371.47
2022-10-31T22:26:32.370Z,97370.84
2022-10-31T22:29:02.496Z,97369.91
2022-10-31T22:31:30.984Z,97374.63
2022-10-31T22:33:57.846Z,97369.09
2022-10-31T22:36:29.839Z,97374.59
2022-10-31T22:38:57.244Z,97379.50
2022-10-31T22:41:26.614Z,97373.25
2022-10-31T22:43:54.660Z,97370.75
2022-10-31T22:46:26.406Z,97362.94
2022-10-31T22:48:55.957Z,97362.41
2022-10-31T22:51:27.930Z,97358.84
2022-10-31T22:53:57.909Z,97361.78
2022-10-31T22:56:30.281Z,97356.16
2022-10-31T22:58:57.656Z,97354.69
2022-10-31T23:01:29.778Z,97361.28
2022-10-31T23:03:56.635Z,97354.69
2022-10-31T23:06:26.527Z,97362.31
2022-10-31T23:08:53.649Z,97361.69
2022-10-31T23:11:25.802Z,97364.06
2022-10-31T23:14:10.036Z,97361.16
2022-10-31T23:16:46.891Z,97365.63
2022-10-31T23:19:25.278Z,97366.88
2022-10-31T23:21:54.772Z,97369.72
2022-10-31T23:24:44.801Z,97366.34
2022-10-31T23:27:17.912Z,97377.50
2022-10-31T23:29:44.526Z,97380.41
2022-10-31T23:32:22.365Z,97372.16
2022-10-31T23:34:51.188Z,97379.16
2022-10-31T23:37:19.378Z,97375.75
2022-10-31T23:39:46.512Z,97379.56
2022-10-31T23:42:13.899Z,97385.59
2022-10-31T23:44:40.661Z,97383.59
2022-10-31T23:47:07.482Z,97385.16
2022-10-31T23:49:34.787Z,97378.91
2022-10-31T23:52:02.064Z,97381.78
2022-10-31T23:54:28.692Z,97377.78
2022-10-31T23:56:55.954Z,97368.50
2022-10-31T23:59:24.731Z,97368.88
